Time;durP1;ratioP1;P1;durP2;ratioP2;P2;SDS_P1;SDS_P2;PMS_P1;PMS_P2;Temp;Humidity;BMP_temperature;BMP_pressure;BME280_temperature;BME280_humidity;BME280_pressure;Samples;Min_cycle;Max_cycle;Signal;HPM_P1;HPM_P2
2024/04/12 00:01:48;;;;;;;4.53;4.13;;;12.20;21.80;;;;;;5436211;26;20526;-81
2024/04/12 00:04:17;;;;;;;5.60;3.93;;;12.30;21.60;;;;;;5429626;26;20900;-80
2024/04/12 00:06:49;;;;;;;3.93;3.53;;;12.20;22.20;;;;;;5437294;26;20474;-78
2024/04/12 00:09:20;;;;;;;4.37;3.30;;;12.20;23.10;;;;;;5433876;26;20504;-81
2024/04/12 00:11:52;;;;;;;5.67;3.70;;;12.10;22.90;;;;;;5436050;26;20888;-78
2024/04/12 00:14:21;;;;;;;5.47;4.30;;;12.10;24.30;;;;;;5439513;26;20520;-79
2024/04/12 00:16:55;;;;;;;5.30;4.20;;;12.10;23.40;;;;;;5431482;26;20588;-78
2024/04/12 00:19:23;;;;;;;4.90;3.90;;;12.00;23.40;;;;;;5446595;26;20947;-79
2024/04/12 00:21:56;;;;;;;3.30;3.00;;;11.90;22.40;;;;;;5434259;26;20537;-76
2024/04/12 00:24:24;;;;;;;4.17;3.93;;;11.90;24.10;;;;;;5432132;26;20561;-79
2024/04/12 00:26:56;;;;;;;4.63;4.23;;;11.90;23.90;;;;;;5438800;26;20465;-79
2024/04/12 00:29:30;;;;;;;4.10;3.80;;;11.90;24.40;;;;;;5430174;26;20483;-79
2024/04/12 00:32:13;;;;;;;5.23;4.30;;;11.80;24.90;;;;;;5432228;26;20867;-76
2024/04/12 00:34:47;;;;;;;4.87;4.10;;;11.70;24.50;;;;;;5432645;26;21184;-80
2024/04/12 00:37:20;;;;;;;5.40;3.97;;;11.80;25.50;;;;;;5435907;26;20566;-79
2024/04/12 00:39:49;;;;;;;5.17;4.10;;;11.90;26.20;;;;;;5439005;26;20562;-77
2024/04/12 00:42:26;;;;;;;5.23;4.00;;;11.80;26.40;;;;;;5432993;26;20465;-76
2024/04/12 00:44:58;;;;;;;4.07;3.10;;;11.80;39.00;;;;;;5434508;26;20473;-77
2024/04/12 00:47:31;;;;;;;4.70;3.20;;;11.70;25.40;;;;;;5430112;26;20461;-78
2024/04/12 00:50:04;;;;;;;3.47;3.17;;;11.80;26.00;;;;;;5429710;26;20464;-77
2024/04/12 00:52:35;;;;;;;4.60;4.03;;;11.80;26.10;;;;;;5431530;26;20471;-79
2024/04/12 00:55:07;;;;;;;5.77;3.63;;;11.70;26.70;;;;;;5435671;26;20518;-79
2024/04/12 00:57:36;;;;;;;4.27;3.77;;;11.60;25.50;;;;;;5440718;26;20475;-79
2024/04/12 01:00:09;;;;;;;4.60;3.80;;;11.60;25.90;;;;;;5433343;26;20656;-81
2024/04/12 01:02:41;;;;;;;5.10;4.03;;;11.60;26.20;;;;;;5433305;26;20553;-79
2024/04/12 01:05:16;;;;;;;4.30;3.90;;;11.60;26.00;;;;;;5433434;26;20475;-79
2024/04/12 01:07:48;;;;;;;4.30;3.20;;;11.60;28.10;;;;;;5436500;26;20470;-78
2024/04/12 01:10:24;;;;;;;4.40;4.00;;;11.50;27.30;;;;;;5429548;26;20579;-79
2024/04/12 01:12:55;;;;;;;4.10;3.80;;;11.60;27.80;;;;;;5431705;26;20566;-78
2024/04/12 01:15:29;;;;;;;4.47;3.80;;;11.60;28.40;;;;;;5432638;26;20899;-79
2024/04/12 01:18:01;;;;;;;3.40;3.10;;;11.50;28.00;;;;;;5424627;26;21202;-78
2024/04/12 01:20:32;;;;;;;9.03;3.97;;;11.40;29.60;;;;;;5435524;26;21163;-80
2024/04/12 01:23:00;;;;;;;7.20;3.57;;;11.40;30.30;;;;;;5432522;26;20488;-77
2024/04/12 01:25:33;;;;;;;5.07;3.80;;;11.40;30.50;;;;;;5431842;26;21032;-80
2024/04/12 01:28:02;;;;;;;3.67;3.23;;;11.30;28.80;;;;;;5434426;26;20880;-77
2024/04/12 01:30:34;;;;;;;4.10;2.90;;;11.30;27.40;;;;;;5430580;26;20472;-79
2024/04/12 01:33:06;;;;;;;3.40;2.80;;;11.40;28.50;;;;;;5427167;26;20603;-78
2024/04/12 01:35:36;;;;;;;5.20;3.20;;;11.30;27.80;;;;;;5431686;26;20474;-79
2024/04/12 01:38:16;;;;;;;6.13;2.90;;;11.30;26.20;;;;;;5432829;26;20535;-80
2024/04/12 01:40:56;;;;;;;6.00;3.03;;;11.30;25.90;;;;;;5436311;26;20516;-81
2024/04/12 01:43:27;;;;;;;3.60;2.97;;;11.30;27.90;;;;;;5432053;26;20564;-78
2024/04/12 01:45:58;;;;;;;6.97;3.67;;;11.30;28.80;;;;;;5436300;26;20570;-81
2024/04/12 01:48:28;;;;;;;3.13;2.83;;;11.20;28.70;;;;;;5434106;26;20458;-80
2024/04/12 01:51:01;;;;;;;4.67;4.03;;;11.20;29.30;;;;;;5424193;26;20469;-80
2024/04/12 01:53:36;;;;;;;3.80;2.73;;;11.20;28.60;;;;;;5436946;26;20510;-76
2024/04/12 01:56:13;;;;;;;4.60;4.00;;;11.10;28.20;;;;;;5436298;26;20472;-81
2024/04/12 01:58:42;;;;;;;2.90;2.63;;;11.10;29.00;;;;;;5433868;26;21122;-76
2024/04/12 02:01:16;;;;;;;3.60;3.30;;;11.10;29.50;;;;;;5428914;26;20480;-75
2024/04/12 02:03:43;;;;;;;6.17;3.40;;;11.00;29.10;;;;;;5432878;26;20547;-77
2024/04/12 02:06:15;;;;;;;3.40;3.10;;;11.00;30.00;;;;;;5429802;26;20469;-79
2024/04/12 02:08:44;;;;;;;3.70;3.00;;;11.00;30.40;;;;;;5434204;26;20469;-75
2024/04/12 02:11:23;;;;;;;3.33;3.13;;;11.00;30.70;;;;;;5435897;26;20482;-78
2024/04/12 02:13:52;;;;;;;4.10;3.00;;;10.90;30.30;;;;;;5432715;26;20461;-78
2024/04/12 02:16:22;;;;;;;6.30;3.03;;;11.00;31.20;;;;;;5436601;26;20596;-75
2024/04/12 02:18:49;;;;;;;3.37;3.07;;;11.00;31.10;;;;;;5431024;26;21950;-77
2024/04/12 02:21:20;;;;;;;3.70;2.93;;;11.00;31.50;;;;;;5428959;26;20479;-74
2024/04/12 02:23:48;;;;;;;5.00;3.13;;;10.90;31.40;;;;;;5434689;26;20456;-79
2024/04/12 02:26:23;;;;;;;4.40;2.80;;;10.90;32.90;;;;;;5437972;26;20594;-77
2024/04/12 02:28:51;;;;;;;5.50;3.47;;;10.90;45.70;;;;;;5430625;26;21609;-77
2024/04/12 02:31:22;;;;;;;3.70;3.40;;;10.80;32.20;;;;;;5440343;26;20482;-81
2024/04/12 02:33:49;;;;;;;3.30;3.00;;;10.80;33.00;;;;;;5437541;26;20557;-80
2024/04/12 02:36:21;;;;;;;3.27;3.07;;;10.90;32.90;;;;;;5436571;26;20582;-80
2024/04/12 02:38:50;;;;;;;4.77;2.80;;;10.90;33.60;;;;;;5437968;26;20528;-80
2024/04/12 02:41:23;;;;;;;4.67;3.10;;;10.80;32.40;;;;;;5431923;26;20481;-77
2024/04/12 02:43:51;;;;;;;4.83;3.07;;;10.80;33.00;;;;;;5442173;26;20512;-78
2024/04/12 02:46:23;;;;;;;4.17;3.10;;;10.80;33.20;;;;;;5438944;26;20505;-80
2024/04/12 02:48:51;;;;;;;3.30;3.10;;;10.80;34.30;;;;;;5436788;26;20467;-78
2024/04/12 02:51:22;;;;;;;4.70;3.03;;;10.70;35.40;;;;;;5432249;26;21044;-78
2024/04/12 02:53:51;;;;;;;7.40;3.30;;;10.70;35.60;;;;;;5436798;26;20483;-78
2024/04/12 02:56:25;;;;;;;3.20;2.87;;;10.60;36.40;;;;;;5432095;26;20474;-78
2024/04/12 02:58:53;;;;;;;3.17;2.97;;;10.70;37.20;;;;;;5433596;26;20456;-77
2024/04/12 03:01:24;;;;;;;3.23;2.70;;;10.70;36.10;;;;;;5440017;26;20479;-76
2024/04/12 03:03:55;;;;;;;3.70;3.43;;;10.70;35.50;;;;;;5435457;26;20479;-80
2024/04/12 03:06:27;;;;;;;4.97;3.23;;;10.70;33.40;;;;;;5438804;26;20481;-76
2024/04/12 03:08:59;;;;;;;4.03;3.47;;;10.50;34.70;;;;;;5435918;26;20532;-76
2024/04/12 03:11:37;;;;;;;3.00;2.70;;;10.50;36.20;;;;;;5436467;26;20485;-78
2024/04/12 03:14:08;;;;;;;3.00;2.70;;;10.60;36.40;;;;;;5438507;26;20559;-77
2024/04/12 03:16:41;;;;;;;3.10;2.80;;;10.60;35.50;;;;;;5436000;26;20919;-78
2024/04/12 03:19:10;;;;;;;2.97;2.77;;;10.50;35.60;;;;;;5433402;26;20467;-76
2024/04/12 03:21:43;;;;;;;3.70;2.60;;;10.50;34.80;;;;;;5429779;26;20460;-80
2024/04/12 03:24:10;;;;;;;3.60;3.30;;;10.50;35.80;;;;;;5436242;26;21073;-78
2024/04/12 03:26:45;;;;;;;4.30;2.73;;;10.50;37.20;;;;;;5433860;26;20483;-78
2024/04/12 03:29:12;;;;;;;4.17;2.53;;;10.40;35.90;;;;;;5436428;26;20861;-78
2024/04/12 03:31:46;;;;;;;2.70;2.50;;;10.50;37.10;;;;;;5431876;26;20558;-80
2024/04/12 03:34:14;;;;;;;3.30;3.00;;;10.40;36.70;;;;;;5432417;26;20473;-78
2024/04/12 03:36:57;;;;;;;3.00;2.63;;;10.40;36.30;;;;;;5436491;26;20521;-80
2024/04/12 03:39:24;;;;;;;4.90;3.43;;;10.30;37.10;;;;;;5439817;26;20462;-77
2024/04/12 03:42:04;;;;;;;4.50;3.07;;;10.30;36.10;;;;;;5438422;26;21042;-81
2024/04/12 03:44:34;;;;;;;4.67;2.90;;;10.30;37.50;;;;;;5437628;26;20460;-82
2024/04/12 03:47:07;;;;;;;3.80;2.63;;;10.40;35.90;;;;;;5439923;26;20473;-80
2024/04/12 03:49:39;;;;;;;3.50;3.20;;;10.30;37.20;;;;;;5433900;26;20514;-79
2024/04/12 03:52:13;;;;;;;2.97;2.77;;;10.30;36.20;;;;;;5441508;26;20482;-80
2024/04/12 03:54:45;;;;;;;4.47;3.47;;;10.30;36.80;;;;;;5437329;26;20527;-79
2024/04/12 03:57:26;;;;;;;4.47;4.07;;;10.30;38.60;;;;;;5438392;26;20535;-80
2024/04/12 03:59:57;;;;;;;3.23;2.83;;;10.20;38.00;;;;;;5434150;26;20479;-80
2024/04/12 04:02:29;;;;;;;5.33;2.60;;;10.20;39.20;;;;;;5432459;26;20555;-81
2024/04/12 04:05:13;;;;;;;2.57;2.47;;;10.30;40.50;;;;;;5430102;26;20538;-78
2024/04/12 04:07:46;;;;;;;4.80;3.30;;;10.30;40.30;;;;;;5432520;26;20529;-79
2024/04/12 04:10:15;;;;;;;3.00;2.80;;;10.30;40.80;;;;;;5466374;26;20523;-81
2024/04/12 04:12:49;;;;;;;4.50;3.00;;;10.30;40.50;;;;;;5430592;26;20544;-80
2024/04/12 04:15:17;;;;;;;3.27;3.07;;;10.30;40.20;;;;;;5434227;26;20486;-80
2024/04/12 04:17:50;;;;;;;2.57;2.40;;;10.20;40.10;;;;;;5431429;26;20488;-78
2024/04/12 04:20:17;;;;;;;3.80;3.50;;;10.20;40.60;;;;;;5434306;26;20512;-80
2024/04/12 04:22:49;;;;;;;3.03;2.57;;;10.10;41.30;;;;;;5430133;26;20464;-80
2024/04/12 04:25:19;;;;;;;4.53;3.30;;;10.10;41.00;;;;;;5434883;26;20529;-79
2024/04/12 04:27:54;;;;;;;5.30;3.53;;;10.10;42.00;;;;;;5436010;26;20820;-77
2024/04/12 04:30:25;;;;;;;3.67;3.10;;;10.20;41.20;;;;;;5430527;26;20654;-79
2024/04/12 04:32:55;;;;;;;3.80;3.10;;;10.10;42.40;;;;;;5430261;26;21137;-79
2024/04/12 04:35:27;;;;;;;4.73;2.90;;;10.10;42.70;;;;;;5436166;26;21406;-80
2024/04/12 04:37:58;;;;;;;5.90;3.03;;;10.20;45.10;;;;;;5428377;26;20471;-80
2024/04/12 04:40:25;;;;;;;4.10;3.43;;;10.20;43.30;;;;;;5438947;26;20452;-77
2024/04/12 04:42:58;;;;;;;3.70;3.00;;;10.20;43.80;;;;;;5437015;26;20522;-78
2024/04/12 04:45:31;;;;;;;4.40;3.60;;;10.20;43.60;;;;;;5431847;26;20507;-78
2024/04/12 04:48:01;;;;;;;3.47;3.20;;;10.20;44.10;;;;;;5429130;26;20572;-78
2024/04/12 04:50:29;;;;;;;12.40;6.33;;;10.10;45.00;;;;;;5432530;26;21079;-78
2024/04/12 04:53:02;;;;;;;5.50;3.30;;;10.20;44.90;;;;;;5428410;26;20476;-76
2024/04/12 04:55:32;;;;;;;5.10;3.10;;;10.10;44.90;;;;;;5430652;26;21972;-78
2024/04/12 04:58:08;;;;;;;5.63;3.30;;;10.20;45.40;;;;;;5429909;26;20459;-79
2024/04/12 05:00:40;;;;;;;4.50;3.10;;;10.20;44.90;;;;;;5427566;26;20481;-79
2024/04/12 05:03:15;;;;;;;3.75;2.92;;;10.10;45.30;;;;;;5423835;26;20372;-79
2024/04/12 05:05:43;;;;;;;3.10;2.90;;;10.10;45.90;;;;;;5424669;26;20929;-78
2024/04/12 05:08:14;;;;;;;7.80;3.87;;;10.10;48.60;;;;;;5429271;26;20473;-78
2024/04/12 05:10:42;;;;;;;3.87;3.40;;;10.20;50.60;;;;;;5424554;26;20462;-76
2024/04/12 05:13:17;;;;;;;2.97;2.77;;;10.10;48.70;;;;;;5433197;26;21394;-79
2024/04/12 05:15:51;;;;;;;3.93;3.37;;;10.10;49.80;;;;;;5423307;26;20476;-76
2024/04/12 05:18:22;;;;;;;3.73;3.43;;;10.20;51.30;;;;;;5431639;26;20456;-77
2024/04/12 05:20:49;;;;;;;5.67;3.47;;;10.20;51.70;;;;;;5429849;26;20531;-78
2024/04/12 05:23:20;;;;;;;3.97;2.90;;;10.30;54.00;;;;;;5431898;26;20489;-76
2024/04/12 05:25:49;;;;;;;6.27;3.27;;;10.20;52.70;;;;;;5430443;26;20460;-78
2024/04/12 05:28:26;;;;;;;3.97;3.27;;;10.20;55.20;;;;;;5426554;26;20478;-76
2024/04/12 05:30:54;;;;;;;3.33;3.03;;;10.30;56.30;;;;;;5430111;26;21032;-77
2024/04/12 05:33:27;;;;;;;3.47;2.70;;;10.30;55.20;;;;;;5424162;26;20521;-80
2024/04/12 05:35:54;;;;;;;4.10;3.20;;;10.20;51.70;;;;;;5427648;26;20819;-79
2024/04/12 05:38:26;;;;;;;3.70;3.40;;;10.20;50.40;;;;;;5433740;26;20459;-77
2024/04/12 05:40:54;;;;;;;3.63;3.10;;;10.30;53.10;;;;;;5432332;26;20469;-75
2024/04/12 05:43:29;;;;;;;3.00;2.70;;;10.30;52.30;;;;;;5429687;26;20629;-76
2024/04/12 05:45:58;;;;;;;4.63;2.90;;;10.30;51.80;;;;;;5429728;26;20576;-79
2024/04/12 05:48:30;;;;;;;3.83;3.20;;;10.40;57.40;;;;;;5429311;26;20548;-78
2024/04/12 05:50:58;;;;;;;3.70;3.40;;;10.40;54.10;;;;;;5431223;26;20476;-78
2024/04/12 05:53:30;;;;;;;7.00;3.40;;;10.40;52.40;;;;;;5432522;26;20478;-79
2024/04/12 05:58:53;;;;;;;5.07;4.40;;;10.50;49.80;;;;;;5431613;26;20516;-76
2024/04/12 06:01:24;;;;;;;3.80;3.50;;;10.60;48.20;;;;;;5436588;26;20806;-78
2024/04/12 06:03:56;;;;;;;5.57;3.93;;;10.70;48.50;;;;;;5436872;26;20469;-76
2024/04/12 06:06:23;;;;;;;5.07;3.57;;;10.90;51.50;;;;;;5438427;26;20457;-77
2024/04/12 06:08:58;;;;;;;3.90;3.60;;;11.00;52.10;;;;;;5442762;26;21216;-81
2024/04/12 06:11:25;;;;;;;4.40;4.07;;;11.10;63.50;;;;;;5435948;26;20489;-78
2024/04/12 06:14:01;;;;;;;4.70;4.00;;;11.20;50.70;;;;;;5427787;26;20529;-74
2024/04/12 06:16:29;;;;;;;5.00;3.57;;;11.30;51.20;;;;;;5431709;26;20469;-76
2024/04/12 06:19:02;;;;;;;6.00;3.83;;;11.30;52.10;;;;;;5434546;26;20610;-76
2024/04/12 06:21:30;;;;;;;7.37;4.77;;;11.40;51.90;;;;;;5432448;26;20463;-76
2024/04/12 06:24:08;;;;;;;5.30;4.50;;;11.60;52.10;;;;;;5424245;26;20902;-73
2024/04/12 06:26:39;;;;;;;7.73;4.73;;;11.70;54.80;;;;;;5435398;26;20508;-74
2024/04/12 06:29:16;;;;;;;6.23;4.53;;;11.90;53.10;;;;;;5426959;26;21036;-73
2024/04/12 06:31:55;;;;;;;6.07;3.80;;;12.10;55.00;;;;;;5429983;26;20480;-75
2024/04/12 06:34:25;;;;;;;7.50;4.53;;;12.30;56.50;;;;;;5427279;26;20488;-71
2024/04/12 06:36:56;;;;;;;6.43;4.33;;;12.40;53.40;;;;;;5431755;26;20464;-72
2024/04/12 06:39:28;;;;;;;7.53;4.70;;;12.60;50.80;;;;;;5426266;26;20534;-72
2024/04/12 06:41:57;;;;;;;5.63;4.50;;;12.80;49.80;;;;;;5424294;26;21062;-73
2024/04/12 06:44:30;;;;;;;8.50;4.13;;;13.00;50.50;;;;;;5429255;26;20556;-75
2024/04/12 06:46:58;;;;;;;16.97;5.00;;;13.20;50.50;;;;;;5428638;26;20507;-75
2024/04/12 06:49:29;;;;;;;6.67;4.60;;;13.30;49.70;;;;;;5431646;26;20477;-75
2024/04/12 06:52:09;;;;;;;5.00;4.10;;;13.50;48.70;;;;;;5430780;26;20562;-77
2024/04/12 06:54:41;;;;;;;4.90;3.50;;;13.70;49.50;;;;;;5429828;26;20516;-73
2024/04/12 06:57:09;;;;;;;4.80;3.57;;;13.80;48.30;;;;;;5426942;26;20501;-72
2024/04/12 06:59:46;;;;;;;5.87;3.67;;;14.00;49.20;;;;;;5429039;26;20466;-74
2024/04/12 07:02:14;;;;;;;4.53;4.10;;;14.10;48.00;;;;;;5422499;26;20478;-73
2024/04/12 07:04:44;;;;;;;4.20;3.90;;;14.20;46.50;;;;;;5430474;26;21046;-73
2024/04/12 07:07:12;;;;;;;7.80;4.00;;;14.30;46.70;;;;;;5427954;26;20466;-72
2024/04/12 07:09:45;;;;;;;4.63;3.60;;;14.30;46.70;;;;;;5427931;26;20472;-71
2024/04/12 07:12:13;;;;;;;4.07;3.53;;;14.50;46.10;;;;;;5425636;26;20566;-73
2024/04/12 07:14:46;;;;;;;6.37;3.47;;;14.60;47.50;;;;;;5427591;26;20712;-73
2024/04/12 07:17:23;;;;;;;3.97;3.37;;;14.80;49.00;;;;;;5428644;26;20595;-73
2024/04/12 07:19:57;;;;;;;10.77;3.37;;;15.10;50.00;;;;;;5433082;26;20458;-73
2024/04/12 07:22:26;;;;;;;6.60;3.47;;;15.30;50.70;;;;;;5431031;26;21053;-71
2024/04/12 07:25:01;;;;;;;4.87;4.07;;;15.50;52.20;;;;;;5435839;26;21013;-74
2024/04/12 07:27:28;;;;;;;3.33;3.00;;;15.80;53.50;;;;;;5433742;26;20531;-72
2024/04/12 07:30:05;;;;;;;4.73;4.20;;;15.90;52.10;;;;;;5429372;26;20471;-73
2024/04/12 07:32:35;;;;;;;10.93;4.00;;;15.90;50.00;;;;;;5436383;26;20522;-74
2024/04/12 07:35:22;;;;;;;4.30;3.90;;;15.90;68.50;;;;;;5436320;26;20557;-73
2024/04/12 07:37:54;;;;;;;6.80;4.30;;;16.00;51.90;;;;;;5433547;26;21019;-75
2024/04/12 07:40:31;;;;;;;4.10;3.70;;;16.20;54.10;;;;;;5435545;26;20477;-73
2024/04/12 07:43:08;;;;;;;5.20;4.20;;;16.20;56.50;;;;;;5422236;26;20475;-74
2024/04/12 07:45:42;;;;;;;6.67;5.13;;;16.30;56.40;;;;;;5431509;26;21140;-77
2024/04/12 07:48:22;;;;;;;5.63;5.00;;;16.40;57.80;;;;;;5433665;26;20524;-80
2024/04/12 07:51:00;;;;;;;5.63;4.30;;;16.50;58.70;;;;;;5431421;26;20472;-74
2024/04/12 07:53:34;;;;;;;6.33;5.27;;;16.60;58.30;;;;;;5429815;26;21218;-78
2024/04/12 07:56:14;;;;;;;6.97;4.73;;;16.60;59.00;;;;;;5432773;26;21111;-74
2024/04/12 07:58:43;;;;;;;7.93;5.20;;;16.60;56.30;;;;;;5429968;26;20522;-75
2024/04/12 08:01:25;;;;;;;5.37;4.80;;;16.60;60.50;;;;;;5433594;26;21102;-73
2024/04/12 08:03:56;;;;;;;5.30;4.70;;;16.60;58.40;;;;;;5431129;26;20484;-75
2024/04/12 08:06:55;;;;;;;6.83;6.13;;;16.70;60.30;;;;;;5429167;26;20584;-77
2024/04/12 08:09:34;;;;;;;6.13;5.60;;;16.70;59.10;;;;;;5430310;26;20454;-76
2024/04/12 08:12:13;;;;;;;9.10;5.43;;;16.70;60.80;;;;;;5431585;26;20485;-72
2024/04/12 08:14:51;;;;;;;5.37;4.40;;;16.70;58.20;;;;;;5429110;26;20553;-74
2024/04/12 08:17:25;;;;;;;5.07;4.60;;;16.80;60.30;;;;;;5432365;26;20518;-76
2024/04/12 08:20:00;;;;;;;5.73;4.93;;;16.80;64.90;;;;;;5426609;26;20518;-75
2024/04/12 08:22:33;;;;;;;7.97;5.20;;;16.90;65.00;;;;;;5428794;26;21131;-73
2024/04/12 08:25:03;;;;;;;5.27;4.77;;;17.00;64.30;;;;;;5429627;26;20522;-75
2024/04/12 08:27:35;;;;;;;6.10;5.50;;;17.00;65.90;;;;;;5429389;26;20456;-75
2024/04/12 08:30:13;;;;;;;6.47;5.80;;;17.00;63.20;;;;;;5424029;26;20476;-75
2024/04/12 08:32:48;;;;;;;7.03;5.40;;;17.10;65.60;;;;;;5429181;26;21720;-74
2024/04/12 08:35:20;;;;;;;8.10;6.07;;;17.20;65.80;;;;;;5428122;26;20857;-76
2024/04/12 08:37:51;;;;;;;8.43;5.67;;;17.10;64.40;;;;;;5426266;26;21467;-73
2024/04/12 08:40:25;;;;;;;9.13;6.00;;;17.10;64.30;;;;;;5429099;26;20526;-77
2024/04/12 08:43:08;;;;;;;5.50;5.00;;;17.20;63.80;;;;;;5428927;26;20490;-71
2024/04/12 08:45:47;;;;;;;5.57;5.00;;;17.20;61.80;;;;;;5426062;26;20459;-73
2024/04/12 08:48:17;;;;;;;7.00;4.87;;;17.20;63.60;;;;;;5427958;26;20487;-77
2024/04/12 08:50:50;;;;;;;4.90;4.40;;;17.20;64.30;;;;;;5426624;26;20897;-74
2024/04/12 08:53:22;;;;;;;5.47;4.97;;;17.30;65.70;;;;;;5429077;26;20539;-72
2024/04/12 08:55:52;;;;;;;6.93;4.50;;;17.40;68.50;;;;;;5431427;26;20593;-75
2024/04/12 08:58:23;;;;;;;7.37;5.83;;;17.50;67.90;;;;;;5430409;26;20477;-74
2024/04/12 09:00:56;;;;;;;5.53;4.20;;;17.40;65.70;;;;;;5427734;26;20571;-76
2024/04/12 09:03:32;;;;;;;5.73;4.07;;;17.40;67.20;;;;;;5432783;26;20548;-76
2024/04/12 09:06:02;;;;;;;5.10;4.67;;;17.50;63.30;;;;;;5427846;26;21144;-75
2024/04/12 09:08:33;;;;;;;11.13;5.17;;;17.50;65.30;;;;;;5428011;26;20470;-77
2024/04/12 09:11:07;;;;;;;4.63;3.53;;;17.60;71.00;;;;;;5432870;26;20578;-76
2024/04/12 09:13:36;;;;;;;6.77;4.60;;;17.70;72.40;;;;;;5432641;26;20565;-76
2024/04/12 09:16:07;;;;;;;5.63;5.07;;;17.80;72.20;;;;;;5427257;26;20532;-75
2024/04/12 09:18:44;;;;;;;5.30;4.90;;;17.70;67.70;;;;;;5430477;26;20586;-76
2024/04/12 09:21:24;;;;;;;4.70;4.20;;;17.80;74.10;;;;;;5428679;26;20485;-76
2024/04/12 09:23:56;;;;;;;8.40;5.30;;;17.90;76.00;;;;;;5431468;26;20571;-75
2024/04/12 09:26:39;;;;;;;5.40;4.90;;;18.00;75.70;;;;;;5431049;26;20996;-74
2024/04/12 09:29:09;;;;;;;6.80;4.77;;;18.00;73.80;;;;;;5426128;26;20542;-75
2024/04/12 09:34:35;;;;;;;5.40;3.70;;;18.10;76.40;;;;;;5433760;26;20521;-76
2024/04/12 09:37:28;;;;;;;4.80;3.80;;;18.20;77.70;;;;;;5428479;26;20468;-77
2024/04/12 09:40:03;;;;;;;4.70;4.30;;;18.20;77.80;;;;;;5430811;26;20531;-76
2024/04/12 09:42:44;;;;;;;7.43;5.30;;;18.30;79.80;;;;;;5431150;26;20595;-79
2024/04/12 09:45:19;;;;;;;5.30;4.90;;;18.30;75.90;;;;;;5429197;26;20508;-79
2024/04/12 10:38:14;;;;;;;6.80;3.33;;;19.10;74.10;;;;;;5438325;26;20464;-79
2024/04/12 10:41:07;;;;;;;3.20;3.00;;;19.20;73.10;;;;;;5431864;26;20570;-76
2024/04/12 10:43:39;;;;;;;3.10;2.27;;;19.10;70.70;;;;;;5427772;26;20564;-75
2024/04/12 10:46:10;;;;;;;5.93;2.63;;;19.20;70.10;;;;;;5429640;26;20535;-74
2024/04/12 10:48:41;;;;;;;2.33;2.13;;;19.20;68.90;;;;;;5434495;26;20454;-76
2024/04/12 10:51:09;;;;;;;2.43;2.23;;;19.20;64.80;;;;;;5433513;26;20548;-80
2024/04/12 10:53:46;;;;;;;3.40;2.83;;;19.30;63.00;;;;;;5432055;26;20495;-78
2024/04/12 10:56:18;;;;;;;3.30;3.00;;;19.30;67.10;;;;;;5436408;26;20539;-75
2024/04/12 10:58:51;;;;;;;3.10;2.40;;;19.40;62.40;;;;;;5430870;26;20471;-74
2024/04/12 11:01:22;;;;;;;2.60;2.40;;;19.40;63.80;;;;;;5434688;26;20534;-76
2024/04/12 11:03:59;;;;;;;5.20;2.27;;;19.40;65.10;;;;;;5430341;26;20466;-77
2024/04/12 11:06:31;;;;;;;2.47;2.37;;;19.40;64.20;;;;;;5435485;26;20470;-75
2024/04/12 11:09:04;;;;;;;2.20;1.70;;;19.40;60.80;;;;;;5437190;26;20577;-76
2024/04/12 11:11:38;;;;;;;1.80;1.70;;;19.40;58.10;;;;;;5439687;26;20471;-76
2024/04/12 11:14:15;;;;;;;3.73;2.43;;;19.50;59.80;;;;;;5436382;26;20547;-72
2024/04/12 11:31:14;;;;;;;4.07;2.10;;;19.60;78.50;;;;;;5433008;26;20572;-75
2024/04/12 11:33:52;;;;;;;2.90;2.63;;;19.70;59.30;;;;;;5427077;26;21259;-73
2024/04/12 11:36:39;;;;;;;3.10;2.83;;;19.80;57.70;;;;;;5435688;26;20471;-76
2024/04/12 11:39:17;;;;;;;2.47;2.10;;;19.80;58.20;;;;;;5434710;26;20476;-74
2024/04/12 11:41:49;;;;;;;4.63;2.87;;;19.80;59.60;;;;;;5432503;26;20520;-73
2024/04/12 11:44:19;;;;;;;2.83;1.70;;;19.80;59.70;;;;;;5428573;26;20468;-72
2024/04/12 11:46:55;;;;;;;2.97;2.00;;;19.80;59.30;;;;;;5433856;26;20456;-76
2024/04/12 11:49:25;;;;;;;2.17;1.97;;;19.80;58.90;;;;;;5430276;26;20462;-77
2024/04/12 11:51:58;;;;;;;2.53;1.97;;;19.80;59.60;;;;;;5432516;26;20574;-73
2024/04/12 11:54:28;;;;;;;3.10;1.83;;;19.90;60.40;;;;;;5432900;26;20459;-76
2024/04/12 11:57:00;;;;;;;3.13;2.20;;;19.90;60.80;;;;;;5427071;26;20479;-73
2024/04/12 11:59:31;;;;;;;4.63;2.20;;;20.00;74.00;;;;;;5429210;26;20485;-74
2024/04/12 12:02:04;;;;;;;2.93;1.80;;;20.00;57.00;;;;;;5429325;26;21351;-78
2024/04/12 12:04:32;;;;;;;1.90;1.60;;;20.00;57.20;;;;;;5429812;26;21176;-74
2024/04/12 12:07:05;;;;;;;3.50;1.90;;;20.00;55.50;;;;;;5429063;26;20519;-76
2024/04/12 12:09:37;;;;;;;2.60;1.60;;;20.00;55.40;;;;;;5434260;26;20891;-78
2024/04/12 12:12:10;;;;;;;2.40;1.57;;;20.00;53.50;;;;;;5430651;26;21419;-76
2024/04/12 12:14:42;;;;;;;5.20;1.37;;;20.10;56.60;;;;;;5432723;26;20455;-75
2024/04/12 12:17:16;;;;;;;1.40;1.30;;;20.10;53.20;;;;;;5430403;26;21049;-79
2024/04/12 12:19:46;;;;;;;3.33;2.10;;;20.10;53.20;;;;;;5429041;26;20471;-78
2024/04/12 12:22:18;;;;;;;1.73;1.50;;;20.10;52.40;;;;;;5423899;26;20482;-76
2024/04/12 12:24:47;;;;;;;2.47;1.60;;;20.10;54.00;;;;;;5427673;26;20998;-76
2024/04/12 12:27:19;;;;;;;3.63;1.83;;;20.10;54.20;;;;;;5431011;26;20456;-78
2024/04/12 12:29:53;;;;;;;4.93;1.70;;;20.20;55.00;;;;;;5429479;26;20832;-77
2024/04/12 12:32:26;;;;;;;4.17;2.50;;;20.20;53.00;;;;;;5432688;26;20482;-75
2024/04/12 12:34:54;;;;;;;2.13;1.70;;;20.20;52.20;;;;;;5424220;26;20571;-76
2024/04/12 12:37:28;;;;;;;1.53;1.30;;;20.10;51.10;;;;;;5428896;26;20560;-75
2024/04/12 12:39:59;;;;;;;3.83;1.90;;;20.20;49.30;;;;;;5428203;26;21060;-76
2024/04/12 12:42:31;;;;;;;1.50;1.40;;;20.20;49.60;;;;;;5424086;26;20476;-77
2024/04/12 12:45:03;;;;;;;2.37;1.80;;;20.30;52.50;;;;;;5429942;26;20527;-77
2024/04/12 12:47:35;;;;;;;5.97;1.83;;;20.30;53.90;;;;;;5435284;26;20463;-77
2024/04/12 12:50:03;;;;;;;1.70;1.60;;;20.30;53.90;;;;;;5422090;26;20474;-78
2024/04/12 12:52:35;;;;;;;1.80;1.40;;;20.30;54.10;;;;;;5431505;26;20522;-80
2024/04/12 12:55:04;;;;;;;2.53;1.57;;;20.30;52.60;;;;;;5426365;26;21289;-78
2024/04/12 12:57:38;;;;;;;1.90;1.80;;;20.30;54.30;;;;;;5422255;26;21832;-80
2024/04/12 13:00:18;;;;;;;1.90;1.80;;;20.40;53.00;;;;;;5429499;26;20475;-77
2024/04/12 13:02:50;;;;;;;5.80;1.83;;;20.40;53.60;;;;;;5433325;26;20526;-78
2024/04/12 13:05:18;;;;;;;1.93;1.73;;;20.40;55.90;;;;;;5426176;26;20519;-78
2024/04/12 13:07:51;;;;;;;1.60;1.50;;;20.40;54.80;;;;;;5429785;26;20459;-77
2024/04/12 13:10:19;;;;;;;2.60;1.40;;;20.50;55.50;;;;;;5426511;26;20469;-74
2024/04/12 13:12:53;;;;;;;2.63;1.90;;;20.50;57.10;;;;;;5428691;26;20484;-77
2024/04/12 13:15:24;;;;;;;2.83;2.03;;;20.50;58.00;;;;;;5432391;26;20480;-78
2024/04/12 13:17:56;;;;;;;3.40;2.07;;;20.50;59.20;;;;;;5429428;26;21037;-77
2024/04/12 13:20:23;;;;;;;2.17;1.97;;;20.60;60.60;;;;;;5425032;26;21061;-75
2024/04/12 13:22:53;;;;;;;4.97;2.33;;;20.60;64.80;;;;;;5427856;26;20539;-74
2024/04/12 13:25:21;;;;;;;4.37;2.00;;;20.60;64.00;;;;;;5433615;26;21475;-75
2024/04/12 13:27:51;;;;;;;2.80;2.50;;;20.60;67.00;;;;;;5429169;26;20569;-76
2024/04/12 13:30:30;;;;;;;2.43;2.00;;;20.70;66.90;;;;;;5428049;26;20514;-75
2024/04/12 13:33:00;;;;;;;5.10;2.20;;;20.70;68.90;;;;;;5432717;26;20463;-76
2024/04/12 13:35:28;;;;;;;2.50;1.70;;;20.70;68.80;;;;;;5426235;26;21216;-75
2024/04/12 13:37:59;;;;;;;4.13;2.60;;;20.70;69.60;;;;;;5427694;26;21348;-75
2024/04/12 13:40:27;;;;;;;3.77;2.50;;;20.80;69.60;;;;;;5424340;26;20589;-76
2024/04/12 13:42:59;;;;;;;3.23;2.50;;;20.80;70.10;;;;;;5428984;26;20464;-75
2024/04/12 13:51:04;;;;;;;5.53;2.33;;;20.80;71.90;;;;;;5423493;26;20522;-73
2024/04/12 13:53:32;;;;;;;2.27;1.87;;;20.80;72.00;;;;;;5421167;26;20544;-73
2024/04/12 13:56:19;;;;;;;3.73;3.37;;;20.80;71.40;;;;;;5415966;26;21034;-76
2024/04/12 13:58:49;;;;;;;3.10;1.97;;;20.80;67.20;;;;;;5431659;26;20497;-75
2024/04/12 14:01:24;;;;;;;2.67;2.57;;;20.90;88.60;;;;;;5425945;26;20476;-77
2024/04/12 14:03:52;;;;;;;3.43;2.67;;;20.90;72.10;;;;;;5431309;26;20476;-76
2024/04/12 14:06:23;;;;;;;3.60;3.30;;;20.90;74.10;;;;;;5423147;26;20524;-74
2024/04/12 14:08:52;;;;;;;3.00;2.30;;;21.00;92.10;;;;;;5428245;26;20482;-77
2024/04/12 14:11:22;;;;;;;2.60;2.40;;;20.90;80.00;;;;;;5434054;26;21220;-76
2024/04/12 14:13:50;;;;;;;3.03;2.00;;;20.90;80.00;;;;;;5431393;26;20516;-75
2024/04/12 14:16:28;;;;;;;2.80;1.90;;;20.90;80.00;;;;;;5429176;26;20470;-76
2024/04/12 14:18:56;;;;;;;6.17;2.73;;;20.90;81.80;;;;;;5426280;26;20592;-74
2024/04/12 14:21:26;;;;;;;3.17;2.33;;;21.00;81.20;;;;;;5430999;26;21232;-77
2024/04/12 14:24:00;;;;;;;3.37;1.90;;;21.00;81.50;;;;;;5420259;26;20462;-73
2024/04/12 14:26:31;;;;;;;2.73;2.53;;;21.00;84.50;;;;;;5433974;26;20474;-76
2024/04/12 14:29:01;;;;;;;3.30;2.73;;;21.00;82.10;;;;;;5430031;26;20452;-75